Latest Weather Observations for Busselton Airport

IDW60801

Issued at 5:23 pm WST Sunday 24 January 2021 (issued every 10 minutes, with the page automatically refreshed every 10 minutes)

About weather observations | Map of weather stations | Latest weather observations for WA | Other Formats
Station Details ID: 009603 Name: BUSSELTON AERO Lat: -33.68 Lon: 115.40 Height: 16.3 m
Data from the previous 72 hours. | See also: Recent months at Busselton Airport
Date/Time
WST
Temp
°C
App
Temp
°C
Dew
Point
°C
Rel
Hum
%
Delta-T
°C
Wind Press
QNH
hPa
Press
MSL
hPa
Rain since
9am
mm
Dir  Spd
km/h
Gust
km/h
Spd
kts
Gust
kts
24/05:00pm 25.0 19.7 9.7 38 8.4 SW 28 37 15 20 1006.4 1006.4 -
24/04:30pm 24.9 19.9 9.6 38 8.4 SW 26 37 14 20 1006.3 1006.3 -
24/04:00pm 24.1 19.1 9.7 40 7.9 SW 26 39 14 21 1006.4 1006.4 -
24/03:30pm 24.6 20.3 10.8 42 7.7 SSW 24 32 13 17 1006.3 1006.3 -
24/03:00pm 25.8 21.2 11.2 40 8.3 SW 26 39 14 21 1006.3 1006.3 -
24/02:30pm 25.7 20.8 9.9 37 8.7 SW 26 37 14 20 1006.1 1006.1 -
24/02:00pm 24.9 20.8 10.0 39 8.2 SSW 22 32 12 17 1006.0 1006.0 -
24/01:30pm 25.8 22.4 9.2 35 9.1 WSW 17 28 9 15 1005.9 1005.9 -
24/01:00pm 25.2 20.8 9.1 36 8.8 SW 22 30 12 16 1006.3 1006.3 -
24/12:30pm 24.2 20.5 11.5 45 7.2 SW 22 32 12 17 1006.4 1006.4 -
24/12:00pm 24.1 20.9 11.4 45 7.2 SW 19 30 10 16 1006.5 1006.5 -
24/11:30am 23.9 20.6 10.9 44 7.2 SW 19 26 10 14 1006.7 1006.7 -
24/11:00am 23.3 20.3 12.0 49 6.4 WSW 19 26 10 14 1006.9 1006.9 -
24/10:30am 23.5 20.2 11.5 47 6.7 WSW 20 26 11 14 1006.9 1006.9 -
24/10:00am 22.1 20.4 13.5 58 5.0 WSW 15 20 8 11 1006.8 1006.8 -
24/09:00am 21.4 21.1 14.3 64 4.2 W 9 13 5 7 1007.0 1007.0 0.0
24/08:30am 20.6 19.4 12.8 61 4.4 W 11 15 6 8 1007.0 1007.0 0.0
24/08:00am 19.6 19.0 13.5 68 3.5 NW 9 13 5 7 1006.8 1006.8 0.0
24/07:30am 18.7 18.8 14.4 76 2.5 NW 7 11 4 6 1006.8 1006.8 0.0
24/07:00am 17.5 18.1 14.2 81 1.9 ESE 4 7 2 4 1006.5 1006.5 0.0
24/06:30am 16.9 16.8 13.8 82 1.8 ESE 7 9 4 5 1006.0 1006.0 0.0
24/06:00am 16.4 16.8 13.7 84 1.5 E 4 7 2 4 1005.8 1005.8 0.0
24/05:30am 16.5 16.3 13.6 83 1.6 ESE 7 9 4 5 1005.6 1005.6 0.0
24/05:00am 16.5 16.0 12.7 78 2.1 E 7 9 4 5 1005.3 1005.3 0.0
24/04:30am 16.3 15.8 12.7 79 2.0 ENE 7 9 4 5 1005.0 1005.0 0.0
24/04:00am 16.3 15.8 12.7 79 2.0 E 7 9 4 5 1004.8 1004.8 0.0
24/03:30am 16.1 15.8 12.7 80 1.9 E 6 7 3 4 1004.8 1004.8 0.0
24/03:00am 15.9 15.4 12.8 82 1.7 E 7 9 4 5 1004.8 1004.8 0.0
24/02:30am 15.6 15.3 12.7 83 1.6 SE 6 7 3 4 1004.9 1004.9 0.0
24/02:00am 15.3 14.7 12.4 83 1.6 E 7 7 4 4 1004.8 1004.8 0.0
24/01:30am 15.1 14.5 12.4 84 1.5 SE 7 9 4 5 1004.9 1004.9 0.0
24/01:00am 15.3 14.9 12.4 83 1.6 SSE 6 7 3 4 1004.9 1004.9 0.0
24/12:50am 15.3 14.8 12.2 82 1.7 SSE 6 7 3 4 1004.7 1004.7 0.0
24/12:36am 15.8 16.6 12.5 81 1.8 CALM 0 0 0 0 1004.8 1004.8 0.0
24/12:30am 15.8 16.6 12.4 80 1.9 CALM 0 0 0 0 1004.8 1004.8 0.0
24/12:00am 16.1 15.0 13.0 82 1.7 NNE 11 13 6 7 1004.8 1004.8 0.0
 
Date/Time
WST
Temp
°C
App
Temp
°C
Dew
Point
°C
Rel
Hum
%
Delta-T
°C
Wind Press
QNH
hPa
Press
MSL
hPa
Rain since
9am
mm
Dir  Spd
km/h
Gust
km/h
Spd
kts
Gust
kts
23/11:30pm 17.2 16.3 13.7 80 2.0 NE 11 11 6 6 1005.0 1005.0 0.0
23/11:00pm 16.4 15.9 12.8 79 2.0 NE 7 9 4 5 1005.2 1005.2 0.0
23/10:30pm 17.4 18.2 12.7 74 2.6 CALM 0 0 0 0 1005.2 1005.2 0.0
23/10:00pm 18.5 19.2 13.4 72 2.9 WSW 2 6 1 3 1005.3 1005.3 0.0
23/09:30pm 19.3 19.8 13.9 71 3.1 SW 4 9 2 5 1005.3 1005.3 0.0
23/09:00pm 19.1 18.5 13.5 70 3.2 SSE 9 11 5 6 1005.2 1005.2 0.0
23/08:30pm 19.3 17.6 13.5 69 3.3 SW 15 19 8 10 1004.9 1004.9 0.0
23/08:00pm 19.7 17.8 12.9 65 3.9 SW 15 19 8 10 1004.3 1004.3 0.0
23/07:30pm 20.5 18.1 12.5 60 4.5 SW 17 22 9 12 1004.0 1004.0 0.0
23/07:00pm 21.6 17.8 12.5 56 5.2 SW 24 30 13 16 1003.7 1003.6 0.0
23/06:30pm 22.6 18.4 12.3 52 5.8 SW 26 33 14 18 1003.3 1003.2 0.0
23/06:00pm 23.9 19.4 12.5 49 6.6 SW 28 35 15 19 1002.7 1002.6 0.0
23/05:30pm 24.6 20.1 12.5 46 7.0 SW 28 35 15 19 1002.2 1002.1 0.0
23/05:00pm 25.7 21.3 12.9 45 7.5 WSW 28 37 15 20 1001.8 1001.7 0.0
23/04:30pm 26.7 22.0 13.1 43 8.0 WSW 30 41 16 22 1001.7 1001.6 0.0
23/04:00pm 27.7 23.3 12.9 40 8.7 WSW 28 35 15 19 1001.6 1001.5 0.0
23/03:30pm 28.7 26.2 14.1 40 8.8 SW 20 30 11 16 1001.3 1001.2 0.0
23/03:00pm 28.8 26.2 13.1 38 9.3 WSW 19 30 10 16 1001.4 1001.3 0.0
23/02:30pm 28.4 25.6 13.1 39 9.0 SW 20 30 11 16 1001.7 1001.6 0.0
23/02:00pm 28.6 26.0 13.7 40 8.9 WSW 20 32 11 17 1001.6 1001.5 0.0
23/01:30pm 29.3 26.6 14.7 41 8.9 WSW 22 32 12 17 1001.5 1001.4 0.0
23/01:00pm 28.3 25.6 14.5 43 8.4 SW 22 30 12 16 1001.5 1001.4 0.0
23/12:30pm 28.5 26.1 14.3 41 8.5 SW 20 30 11 16 1001.5 1001.4 0.0
23/12:00pm 28.1 25.6 14.0 42 8.5 WSW 20 30 11 16 1001.7 1001.6 0.0
23/11:30am 27.5 24.4 14.5 45 7.8 SW 24 32 13 17 1002.0 1001.9 0.0
23/11:00am 27.3 24.4 15.0 47 7.5 WSW 24 32 13 17 1002.3 1002.2 0.0
23/10:30am 27.6 24.9 15.6 48 7.3 SW 24 35 13 19 1002.3 1002.2 0.0
23/10:00am 26.4 24.3 16.1 53 6.3 SW 22 37 12 20 1002.4 1002.3 0.0
23/09:30am 25.9 24.4 16.2 55 6.0 SW 19 28 10 15 1002.4 1002.3 0.0
23/09:00am 23.7 22.4 16.7 65 4.3 SSW 19 24 10 13 1002.3 1002.2 0.0
23/08:30am 21.9 20.5 16.6 72 3.2 S 19 24 10 13 1002.1 1002.0 0.0
23/08:18am 21.1 20.2 16.9 77 2.6 S 17 22 9 12 1001.9 1001.8 0.0
23/08:00am 20.6 19.8 17.2 81 2.1 S 17 22 9 12 1001.9 1001.8 0.0
23/07:30am 18.1 17.1 17.6 97 0.3 S 19 22 10 12 1002.0 1001.9 0.0
23/07:00am 17.1 16.3 17.1 100 0.0 SSW 17 22 9 12 1002.0 1001.9 0.0
23/06:30am 16.6 16.0 16.6 100 0.0 SSW 15 19 8 10 1001.9 1001.8 0.0
23/06:00am 16.2 15.4 16.2 100 0.0 SSW 15 19 8 10 1001.6 1001.5 0.0
23/05:30am 16.3 16.3 16.3 100 0.0 SSW 11 15 6 8 1001.5 1001.4 0.0
23/05:16am 16.2 16.6 16.2 100 0.0 SW 9 15 5 8 1001.5 1001.4 0.0
23/05:00am 15.8 15.6 15.8 100 0.0 WSW 11 15 6 8 1001.5 1001.4 0.0
23/04:30am 15.4 15.8 15.4 100 0.0 SSW 7 9 4 5 1000.9 1000.8 0.0
23/04:00am 15.2 15.7 15.0 99 0.1 S 6 7 3 4 1000.9 1000.8 0.0
23/03:30am 16.0 16.3 16.0 100 0.0 S 9 11 5 6 1001.0 1000.9 0.0
23/03:00am 15.9 15.7 15.7 99 0.1 SSE 11 13 6 7 1000.9 1000.8 0.0
23/02:30am 16.9 15.9 16.7 99 0.1 S 17 20 9 11 1001.3 1001.2 0.0
23/02:00am 16.8 16.2 16.6 99 0.1 SSW 15 19 8 10 1001.6 1001.5 0.0
23/01:30am 16.9 15.4 16.3 96 0.4 SSW 19 22 10 12 1001.8 1001.7 0.0
23/01:00am 16.9 15.5 15.6 92 0.8 SW 17 22 9 12 1001.9 1001.8 0.0
23/12:30am 17.4 16.8 15.6 89 1.1 SW 13 15 7 8 1002.0 1001.9 0.0
23/12:00am 17.4 17.5 15.4 88 1.2 SSW 9 13 5 7 1002.1 1002.0 0.0
 
Date/Time
WST
Temp
°C
App
Temp
°C
Dew
Point
°C
Rel
Hum
%
Delta-T
°C
Wind Press
QNH
hPa
Press
MSL
hPa
Rain since
9am
mm
Dir  Spd
km/h
Gust
km/h
Spd
kts
Gust
kts
22/11:30pm 17.0 16.2 13.9 82 1.8 S 11 13 6 7 1002.4 1002.3 0.0
22/11:00pm 18.9 18.4 15.0 78 2.3 SW 11 13 6 7 1002.7 1002.6 0.0
22/10:30pm 19.5 19.2 14.5 73 2.9 S 9 13 5 7 1002.7 1002.6 0.0
22/10:00pm 19.3 19.1 13.7 70 3.2 SSE 7 9 4 5 1002.9 1002.8 0.0
22/09:30pm 20.0 19.5 13.9 68 3.5 S 9 11 5 6 1003.2 1003.1 0.0
22/09:00pm 20.6 19.7 13.8 65 3.9 SSE 11 13 6 7 1003.3 1003.2 0.0
22/08:30pm 21.4 20.1 13.6 61 4.5 S 13 19 7 10 1003.2 1003.1 0.0
22/08:00pm 22.3 20.5 13.4 57 5.2 S 15 22 8 12 1003.2 1003.1 0.0
22/07:30pm 24.2 21.7 13.4 51 6.3 S 19 24 10 13 1003.1 1003.0 0.0
22/07:00pm 25.9 21.9 13.1 45 7.5 S 26 30 14 16 1003.1 1003.0 0.0
22/06:30pm 27.4 22.6 13.0 41 8.4 S 30 35 16 19 1003.2 1003.1 0.0
22/06:00pm 29.7 25.1 12.2 34 10.3 S 28 35 15 19 1002.8 1002.7 0.0
22/05:30pm 30.5 25.7 12.9 34 10.4 S 30 39 16 21 1002.5 1002.4 0.0
22/05:00pm 31.7 27.2 12.5 31 11.4 SSW 28 35 15 19 1002.5 1002.4 0.0
22/04:30pm 31.8 27.9 14.4 34 10.6 SSW 28 37 15 20 1002.4 1002.3 0.0
22/04:00pm 32.8 28.9 14.4 33 11.3 SW 28 41 15 22 1002.6 1002.5 0.0
22/03:30pm 33.3 29.1 13.4 30 12.0 SW 28 37 15 20 1002.9 1002.8 0.0
22/03:13pm 33.6 29.4 13.6 29 12.1 WSW 28 46 15 25 1003.1 1003.0 0.0
22/03:00pm 33.1 28.6 12.7 29 12.2 W 28 41 15 22 1003.0 1002.9 0.0
22/02:30pm 33.8 30.4 13.8 30 12.2 WNW 24 33 13 18 1003.2 1003.1 0.0
22/02:00pm 31.0 28.4 15.8 40 9.5 WNW 24 30 13 16 1003.5 1003.4 0.0
22/01:30pm 32.1 29.1 13.8 33 11.1 NW 22 30 12 16 1003.8 1003.7 0.0
22/01:00pm 32.3 29.9 14.4 33 11.0 NW 20 26 11 14 1003.9 1003.8 0.0
22/12:30pm 32.8 32.5 14.4 33 11.3 WNW 9 24 5 13 1004.2 1004.2 0.0
22/12:00pm 32.0 31.5 12.8 31 11.5 WNW 7 13 4 7 1004.7 1004.7 0.0
22/11:30am 30.8 30.1 13.1 34 10.5 E 9 17 5 9 1005.1 1005.1 0.0
22/11:00am 29.4 29.2 13.6 38 9.5 ESE 7 17 4 9 1005.6 1005.6 0.0
22/10:30am 28.0 28.0 13.5 41 8.6 E 6 15 3 8 1006.0 1006.0 0.0
22/10:00am 27.1 26.6 13.8 44 7.9 E 9 17 5 9 1006.5 1006.5 0.0
22/09:30am 25.3 25.2 13.2 47 7.1 ESE 6 15 3 8 1007.1 1007.1 0.0
22/09:00am 24.3 23.2 13.2 50 6.5 ENE 11 17 6 9 1007.4 1007.4 0.0
22/08:30am 23.4 22.1 13.6 54 5.7 E 13 19 7 10 1007.7 1007.7 0.0
22/08:00am 21.6 19.5 13.5 60 4.7 E 17 22 9 12 1008.0 1008.0 0.0
22/07:30am 19.9 19.5 14.0 69 3.4 SE 9 17 5 9 1008.3 1008.3 0.0
22/07:00am 17.9 17.3 13.6 76 2.4 S 9 11 5 6 1008.7 1008.7 0.0
22/06:30am 16.8 15.9 13.7 82 1.8 S 11 13 6 7 1008.7 1008.7 0.0
22/06:00am 15.8 15.1 13.3 85 1.4 SE 9 11 5 6 1008.9 1008.9 0.0
22/05:30am 15.5 15.0 12.8 84 1.5 ESE 7 9 4 5 1008.8 1008.8 0.0
22/05:00am 15.8 15.0 12.9 83 1.6 E 9 11 5 6 1008.5 1008.5 0.0
22/04:30am 16.6 16.3 13.3 81 1.8 E 7 13 4 7 1008.5 1008.5 0.0
22/04:00am 17.0 15.7 13.7 81 1.9 E 13 17 7 9 1008.4 1008.4 0.0
22/03:30am 16.8 15.6 13.9 83 1.6 E 13 20 7 11 1008.5 1008.5 0.0
22/03:00am 16.2 15.2 13.3 83 1.6 ESE 11 13 6 7 1008.8 1008.8 0.0
22/02:30am 16.8 15.5 13.7 82 1.8 SSE 13 15 7 8 1009.0 1009.0 0.0
22/02:00am 17.5 17.0 13.8 79 2.1 ESE 9 11 5 6 1009.4 1009.4 0.0
22/01:30am 17.9 16.7 14.0 78 2.2 SE 13 17 7 9 1009.5 1009.5 0.0
22/01:00am 18.1 17.0 14.2 78 2.2 SE 13 15 7 8 1009.7 1009.7 0.0
22/12:30am 19.0 18.3 14.3 74 2.7 ESE 11 19 6 10 1010.2 1010.2 0.0
22/12:00am 19.4 17.2 14.4 73 2.9 ESE 19 22 10 12 1010.1 1010.1 0.0
 
Date/Time
WST
Temp
°C
App
Temp
°C
Dew
Point
°C
Rel
Hum
%
Delta-T
°C
Wind Press
QNH
hPa
Press
MSL
hPa
Rain since
9am
mm
Dir  Spd
km/h
Gust
km/h
Spd
kts
Gust
kts
21/11:30pm 19.9 17.6 14.7 72 3.0 ESE 20 26 11 14 1010.2 1010.2 0.0
21/11:00pm 20.5 17.9 14.8 70 3.3 SE 22 30 12 16 1010.4 1010.4 0.0
21/10:30pm 21.0 18.6 15.3 70 3.4 SE 22 30 12 16 1010.7 1010.7 0.0
21/10:00pm 21.3 19.0 15.6 70 3.4 SE 22 26 12 14 1010.9 1010.9 0.0
21/09:30pm 21.5 19.6 15.8 70 3.4 SE 20 28 11 15 1010.8 1010.8 0.0
21/09:00pm 21.7 19.1 16.0 70 3.4 SSE 24 32 13 17 1010.7 1010.7 0.0
21/08:30pm 22.0 19.9 16.3 70 3.5 SSE 22 30 12 16 1010.6 1010.6 0.0
21/08:00pm 22.4 19.6 16.4 69 3.6 SSE 26 35 14 19 1010.3 1010.3 0.0
21/07:30pm 23.1 20.3 16.4 66 4.1 S 26 33 14 18 1010.1 1010.1 0.0
21/07:00pm 24.2 20.3 16.5 62 4.7 S 32 37 17 20 1010.0 1010.0 0.0
21/06:30pm 25.3 21.4 16.4 57 5.5 S 32 41 17 22 1009.8 1009.8 0.0
21/06:00pm 26.4 22.0 16.6 55 6.1 S 35 43 19 23 1009.6 1009.6 0.0
21/05:30pm 28.2 24.2 16.8 50 7.1 S 33 43 18 23 1009.3 1009.3 0.0

Other formats

Comma delimited format used in spreadsheet applications
http://www.bom.gov.au/fwo/IDW60801/IDW60801.95611.axf

JavaScript Object Notation format (JSON) in row-major order
http://www.bom.gov.au/fwo/IDW60801/IDW60801.95611.json

Data quality

Most of these data are generated automatically and are frequently updated. Quality checks on data are not normally performed. It is possible for incorrect values to appear. Refer to information at About Latest Weather Observations and please check the disclaimer before using these data.